Terminal Aerodrome Forecast
Issued by NWS

Home | Current Version | Previous Version | Graphics & Text | Print | Product List | Glossary On
Versions: 1 2 3 4 5 6 7 8 9 10 11 12
000
FTUS42 KMHX 220520
TAFOAJ
TAF
KOAJ 220520Z 2206/2306 24003KT P6SM FEW080 SCT250
     FM221600 22011G21KT P6SM SKC
     FM230000 20007KT P6SM SKC
      AMD LTD TO CLD VIS AND WIND=

USA.gov is the U.S. government's official web portal to all federal, state and local government web resources and services.